sensor_id;sensor_type;location;lat;lon;timestamp;pressure;altitude;pressure_sealevel;temperature;humidity
50394;BME280;36308;46.312;25.288;2023-04-01T00:01:41;95025.19;;;4.02;72.08
50394;BME280;36308;46.312;25.288;2023-04-01T00:04:25;95018.03;;;4.03;71.95
50394;BME280;36308;46.312;25.288;2023-04-01T00:06:50;95022.53;;;4.02;72.55
50394;BME280;36308;46.312;25.288;2023-04-01T00:09:17;95018.84;;;4.03;72.14
50394;BME280;36308;46.312;25.288;2023-04-01T00:11:43;95018.84;;;4.03;72.40
50394;BME280;36308;46.312;25.288;2023-04-01T00:14:10;95018.34;;;4.07;72.33
50394;BME280;36308;46.312;25.288;2023-04-01T00:16:36;95020.78;;;4.08;72.15
50394;BME280;36308;46.312;25.288;2023-04-01T00:19:02;95025.28;;;4.08;72.45
50394;BME280;36308;46.312;25.288;2023-04-01T00:21:28;95005.88;;;4.07;71.83
50394;BME280;36308;46.312;25.288;2023-04-01T00:23:53;95000.28;;;4.09;72.67
50394;BME280;36308;46.312;25.288;2023-04-01T00:26:19;95007.81;;;4.12;72.13
50394;BME280;36308;46.312;25.288;2023-04-01T00:28:47;95002.25;;;4.13;72.26
50394;BME280;36308;46.312;25.288;2023-04-01T00:31:13;95013.69;;;4.14;72.15
50394;BME280;36308;46.312;25.288;2023-04-01T00:33:40;95008.38;;;4.14;72.36
50394;BME280;36308;46.312;25.288;2023-04-01T00:36:11;95011.59;;;4.16;72.92
50394;BME280;36308;46.312;25.288;2023-04-01T00:38:37;95001.75;;;4.16;72.80
50394;BME280;36308;46.312;25.288;2023-04-01T00:41:04;94998.84;;;4.18;72.85
50394;BME280;36308;46.312;25.288;2023-04-01T00:43:30;94993.31;;;4.19;72.49
50394;BME280;36308;46.312;25.288;2023-04-01T00:45:56;94999.44;;;4.20;72.84
50394;BME280;36308;46.312;25.288;2023-04-01T00:48:28;94991.44;;;4.20;73.02
50394;BME280;36308;46.312;25.288;2023-04-01T00:51:17;94990.16;;;4.22;73.17
50394;BME280;36308;46.312;25.288;2023-04-01T00:53:47;94992.56;;;4.24;73.10
50394;BME280;36308;46.312;25.288;2023-04-01T00:56:16;95004.81;;;4.25;73.10
50394;BME280;36308;46.312;25.288;2023-04-01T00:58:48;94997.66;;;4.25;73.06
50394;BME280;36308;46.312;25.288;2023-04-01T01:01:16;94995.78;;;4.26;72.74
50394;BME280;36308;46.312;25.288;2023-04-01T01:03:42;94989.41;;;4.27;72.55
50394;BME280;36308;46.312;25.288;2023-04-01T01:06:23;94987.56;;;4.28;72.91
50394;BME280;36308;46.312;25.288;2023-04-01T01:17:12;94967.66;;;4.30;72.74
50394;BME280;36308;46.312;25.288;2023-04-01T01:26:05;94961.81;;;4.33;72.77
50394;BME280;36308;46.312;25.288;2023-04-01T01:31:12;94958.69;;;4.36;73.12
50394;BME280;36308;46.312;25.288;2023-04-01T01:34:02;94948.03;;;4.36;72.85
50394;BME280;36308;46.312;25.288;2023-04-01T01:36:33;94953.94;;;4.38;73.19
50394;BME280;36308;46.312;25.288;2023-04-01T01:39:07;94943.00;;;4.40;73.21
50394;BME280;36308;46.312;25.288;2023-04-01T01:41:35;94944.66;;;4.41;72.88
50394;BME280;36308;46.312;25.288;2023-04-01T01:44:05;94936.66;;;4.41;72.98
50394;BME280;36308;46.312;25.288;2023-04-01T01:46:32;94943.34;;;4.43;73.25
50394;BME280;36308;46.312;25.288;2023-04-01T01:48:59;94933.50;;;4.44;73.09
50394;BME280;36308;46.312;25.288;2023-04-01T01:51:26;94925.28;;;4.45;73.27
50394;BME280;36308;46.312;25.288;2023-04-01T01:53:53;94920.50;;;4.48;73.17
50394;BME280;36308;46.312;25.288;2023-04-01T01:56:19;94908.00;;;4.48;73.63
50394;BME280;36308;46.312;25.288;2023-04-01T01:58:51;94911.22;;;4.50;73.18
50394;BME280;36308;46.312;25.288;2023-04-01T02:01:24;94901.41;;;4.51;73.30
50394;BME280;36308;46.312;25.288;2023-04-01T02:03:52;94890.75;;;4.51;72.86
50394;BME280;36308;46.312;25.288;2023-04-01T02:06:23;94893.97;;;4.53;72.90
50394;BME280;36308;46.312;25.288;2023-04-01T02:09:01;94889.44;;;4.53;73.54
50394;BME280;36308;46.312;25.288;2023-04-01T02:11:34;94889.75;;;4.57;73.00
50394;BME280;36308;46.312;25.288;2023-04-01T02:14:06;94888.69;;;4.58;73.03
50394;BME280;36308;46.312;25.288;2023-04-01T02:17:14;94892.97;;;4.59;73.49
50394;BME280;36308;46.312;25.288;2023-04-01T02:22:18;94883.44;;;4.63;73.08
50394;BME280;36308;46.312;25.288;2023-04-01T02:24:45;94875.19;;;4.64;73.43
50394;BME280;36308;46.312;25.288;2023-04-01T02:27:12;94876.03;;;4.65;73.21
50394;BME280;36308;46.312;25.288;2023-04-01T02:29:38;94882.94;;;4.66;73.20
50394;BME280;36308;46.312;25.288;2023-04-01T02:32:05;94884.06;;;4.70;73.53
50394;BME280;36308;46.312;25.288;2023-04-01T02:34:32;94884.59;;;4.72;73.12
50394;BME280;36308;46.312;25.288;2023-04-01T02:36:58;94890.72;;;4.73;73.44
50394;BME280;36308;46.312;25.288;2023-04-01T02:39:24;94894.22;;;4.73;72.96
50394;BME280;36308;46.312;25.288;2023-04-01T02:41:52;94901.13;;;4.74;73.47
50394;BME280;36308;46.312;25.288;2023-04-01T02:44:18;94905.44;;;4.75;73.86
50394;BME280;36308;46.312;25.288;2023-04-01T02:46:43;94914.22;;;4.76;73.37
50394;BME280;36308;46.312;25.288;2023-04-01T02:49:09;94900.34;;;4.74;73.80
50394;BME280;36308;46.312;25.288;2023-04-01T02:51:34;94898.00;;;4.77;73.20
50394;BME280;36308;46.312;25.288;2023-04-01T02:54:00;94890.56;;;4.79;73.22
50394;BME280;36308;46.312;25.288;2023-04-01T02:56:26;94887.63;;;4.81;73.56
50394;BME280;36308;46.312;25.288;2023-04-01T02:58:52;94878.59;;;4.82;73.86
50394;BME280;36308;46.312;25.288;2023-04-01T03:01:17;94884.47;;;4.84;73.43
50394;BME280;36308;46.312;25.288;2023-04-01T03:03:43;94883.41;;;4.85;73.85
50394;BME280;36308;46.312;25.288;2023-04-01T03:06:11;94875.97;;;4.87;73.48
50394;BME280;36308;46.312;25.288;2023-04-01T03:08:37;94865.09;;;4.89;74.08
50394;BME280;36308;46.312;25.288;2023-04-01T03:11:03;94869.91;;;4.92;73.87
50394;BME280;36308;46.312;25.288;2023-04-01T03:13:47;94867.00;;;4.93;73.96
50394;BME280;36308;46.312;25.288;2023-04-01T03:16:14;94865.69;;;4.96;73.66
50394;BME280;36308;46.312;25.288;2023-04-01T03:18:40;94866.22;;;4.98;74.06
50394;BME280;36308;46.312;25.288;2023-04-01T03:21:13;94863.56;;;4.98;73.71
50394;BME280;36308;46.312;25.288;2023-04-01T03:23:38;94866.53;;;5.01;74.07
50394;BME280;36308;46.312;25.288;2023-04-01T03:26:04;94871.63;;;5.03;73.88
50394;BME280;36308;46.312;25.288;2023-04-01T03:28:29;94867.91;;;5.04;73.62
50394;BME280;36308;46.312;25.288;2023-04-01T03:30:55;94868.44;;;5.06;74.10
50394;BME280;36308;46.312;25.288;2023-04-01T03:33:20;94862.88;;;5.07;73.84
50394;BME280;36308;46.312;25.288;2023-04-01T03:35:46;94859.97;;;5.09;73.87
50394;BME280;36308;46.312;25.288;2023-04-01T03:38:11;94859.44;;;5.12;74.05
50394;BME280;36308;46.312;25.288;2023-04-01T03:40:36;94846.13;;;5.12;74.05
50394;BME280;36308;46.312;25.288;2023-04-01T03:43:03;94845.88;;;5.14;74.07
50394;BME280;36308;46.312;25.288;2023-04-01T03:45:33;94838.44;;;5.16;74.25
50394;BME280;36308;46.312;25.288;2023-04-01T03:47:58;94845.41;;;5.17;73.97
50394;BME280;36308;46.312;25.288;2023-04-01T03:50:24;94844.63;;;5.21;74.29
50394;BME280;36308;46.312;25.288;2023-04-01T03:52:50;94836.63;;;5.21;74.02
50394;BME280;36308;46.312;25.288;2023-04-01T03:55:16;94847.84;;;5.23;73.93
50394;BME280;36308;46.312;25.288;2023-04-01T03:57:43;94839.84;;;5.23;74.21
50394;BME280;36308;46.312;25.288;2023-04-01T04:00:10;94837.75;;;5.25;74.13
50394;BME280;36308;46.312;25.288;2023-04-01T04:02:35;94839.34;;;5.26;73.93
50394;BME280;36308;46.312;25.288;2023-04-01T04:05:01;94829.22;;;5.29;73.96
50394;BME280;36308;46.312;25.288;2023-04-01T04:07:27;94835.09;;;5.31;73.93
50394;BME280;36308;46.312;25.288;2023-04-01T04:09:52;94821.28;;;5.34;74.27
50394;BME280;36308;46.312;25.288;2023-04-01T04:12:18;94833.53;;;5.35;74.18
50394;BME280;36308;46.312;25.288;2023-04-01T04:14:43;94827.16;;;5.36;73.93
50394;BME280;36308;46.312;25.288;2023-04-01T04:17:12;94823.44;;;5.37;74.19
50394;BME280;36308;46.312;25.288;2023-04-01T04:19:41;94817.84;;;5.38;74.00
50394;BME280;36308;46.312;25.288;2023-04-01T04:22:07;94820.53;;;5.38;74.25
50394;BME280;36308;46.312;25.288;2023-04-01T04:24:34;94811.72;;;5.38;74.32
50394;BME280;36308;46.312;25.288;2023-04-01T04:27:00;94813.88;;;5.41;74.21
50394;BME280;36308;46.312;25.288;2023-04-01T04:29:26;94811.75;;;5.43;74.20
50394;BME280;36308;46.312;25.288;2023-04-01T04:31:51;94802.97;;;5.42;73.98
50394;BME280;36308;46.312;25.288;2023-04-01T04:34:17;94801.88;;;5.43;74.60
50394;BME280;36308;46.312;25.288;2023-04-01T04:36:43;94798.97;;;5.45;74.13
50394;BME280;36308;46.312;25.288;2023-04-01T04:39:09;94804.06;;;5.46;73.96
50394;BME280;36308;46.312;25.288;2023-04-01T04:41:37;94811.81;;;5.48;74.12
50394;BME280;36308;46.312;25.288;2023-04-01T04:44:03;94800.06;;;5.49;74.32
50394;BME280;36308;46.312;25.288;2023-04-01T04:46:28;94803.28;;;5.51;74.48
50394;BME280;36308;46.312;25.288;2023-04-01T04:48:54;94798.75;;;5.52;74.13
50394;BME280;36308;46.312;25.288;2023-04-01T04:51:20;94804.91;;;5.52;74.39
50394;BME280;36308;46.312;25.288;2023-04-01T04:53:46;94801.72;;;5.55;74.17
50394;BME280;36308;46.312;25.288;2023-04-01T04:56:12;94798.00;;;5.56;74.21
50394;BME280;36308;46.312;25.288;2023-04-01T04:58:38;94798.56;;;5.58;74.32
50394;BME280;36308;46.312;25.288;2023-04-01T05:01:12;94793.22;;;5.58;74.17
50394;BME280;36308;46.312;25.288;2023-04-01T05:03:39;94788.44;;;5.60;74.61
50394;BME280;36308;46.312;25.288;2023-04-01T05:06:06;94787.38;;;5.61;74.59
50394;BME280;36308;46.312;25.288;2023-04-01T05:08:32;94782.81;;;5.62;74.26
50394;BME280;36308;46.312;25.288;2023-04-01T05:11:00;94788.97;;;5.62;74.46
50394;BME280;36308;46.312;25.288;2023-04-01T05:13:26;94793.00;;;5.65;74.72
50394;BME280;36308;46.312;25.288;2023-04-01T05:15:52;94799.13;;;5.65;74.45
50394;BME280;36308;46.312;25.288;2023-04-01T05:18:18;94787.97;;;5.69;74.40
50394;BME280;36308;46.312;25.288;2023-04-01T05:20:50;94770.88;;;5.70;74.55
50394;BME280;36308;46.312;25.288;2023-04-01T05:23:16;94773.03;;;5.73;74.95
50394;BME280;36308;46.312;25.288;2023-04-01T05:25:43;94768.22;;;5.75;74.72
50394;BME280;36308;46.312;25.288;2023-04-01T05:28:11;94760.78;;;5.77;74.51
50394;BME280;36308;46.312;25.288;2023-04-01T05:30:42;94760.53;;;5.78;74.73
50394;BME280;36308;46.312;25.288;2023-04-01T05:33:10;94760.03;;;5.81;74.66
50394;BME280;36308;46.312;25.288;2023-04-01T05:35:36;94765.63;;;5.85;75.02
50394;BME280;36308;46.312;25.288;2023-04-01T05:38:02;94770.47;;;5.88;74.96
50394;BME280;36308;46.312;25.288;2023-04-01T05:40:28;94771.78;;;5.91;75.08
50394;BME280;36308;46.312;25.288;2023-04-01T05:42:54;94766.22;;;5.92;74.93
50394;BME280;36308;46.312;25.288;2023-04-01T05:45:20;94764.91;;;5.95;74.58
50394;BME280;36308;46.312;25.288;2023-04-01T05:47:45;94770.53;;;5.98;74.86
50394;BME280;36308;46.312;25.288;2023-04-01T05:50:11;94768.41;;;6.00;74.90
50394;BME280;36308;46.312;25.288;2023-04-01T05:52:37;94768.72;;;6.04;75.01
50394;BME280;36308;46.312;25.288;2023-04-01T05:55:04;94772.72;;;6.06;74.67
50394;BME280;36308;46.312;25.288;2023-04-01T05:57:30;94769.50;;;6.10;74.51
50394;BME280;36308;46.312;25.288;2023-04-01T05:59:56;94771.94;;;6.11;74.63
50394;BME280;36308;46.312;25.288;2023-04-01T06:02:22;94767.94;;;6.14;74.79
50394;BME280;36308;46.312;25.288;2023-04-01T06:04:47;94771.69;;;6.18;74.74
50394;BME280;36308;46.312;25.288;2023-04-01T06:07:14;94775.97;;;6.19;74.89
50394;BME280;36308;46.312;25.288;2023-04-01T06:09:41;94763.97;;;6.21;74.60
50394;BME280;36308;46.312;25.288;2023-04-01T06:18:52;94784.28;;;6.27;74.45
50394;BME280;36308;46.312;25.288;2023-04-01T06:26:56;94774.44;;;6.33;74.40
50394;BME280;36308;46.312;25.288;2023-04-01T06:32:21;94771.75;;;6.38;74.57
50394;BME280;36308;46.312;25.288;2023-04-01T06:51:33;94794.81;;;6.65;74.65
50394;BME280;36308;46.312;25.288;2023-04-01T06:54:11;94777.47;;;6.67;74.37
50394;BME280;36308;46.312;25.288;2023-04-01T06:56:42;94777.19;;;6.74;74.52
50394;BME280;36308;46.312;25.288;2023-04-01T06:59:40;94778.28;;;6.78;74.57
50394;BME280;36308;46.312;25.288;2023-04-01T07:04:38;94771.66;;;6.91;74.17
50394;BME280;36308;46.312;25.288;2023-04-01T07:07:24;94774.31;;;6.96;74.15
50394;BME280;36308;46.312;25.288;2023-04-01T07:09:56;94777.78;;;7.02;74.20
50394;BME280;36308;46.312;25.288;2023-04-01T07:15:14;94774.06;;;7.08;74.12
50394;BME280;36308;46.312;25.288;2023-04-01T07:17:42;94774.31;;;7.12;74.07
50394;BME280;36308;46.312;25.288;2023-04-01T07:20:28;94770.88;;;7.16;73.95
50394;BME280;36308;46.312;25.288;2023-04-01T07:23:16;94767.13;;;7.22;74.12
50394;BME280;36308;46.312;25.288;2023-04-01T07:25:52;94768.44;;;7.30;74.08
50394;BME280;36308;46.312;25.288;2023-04-01T07:28:18;94765.22;;;7.38;74.26
50394;BME280;36308;46.312;25.288;2023-04-01T07:36:14;94753.19;;;7.66;73.91
50394;BME280;36308;46.312;25.288;2023-04-01T07:44:27;94741.34;;;7.93;73.69
50394;BME280;36308;46.312;25.288;2023-04-01T07:50:20;94754.41;;;8.10;73.10
50394;BME280;36308;46.312;25.288;2023-04-01T08:15:09;94726.41;;;8.92;72.08
50394;BME280;36308;46.312;25.288;2023-04-01T08:17:47;94733.06;;;8.99;71.84
50394;BME280;36308;46.312;25.288;2023-04-01T08:28:32;94741.69;;;9.25;70.86
50394;BME280;36308;46.312;25.288;2023-04-01T08:31:02;94732.53;;;9.31;70.92
50394;BME280;36308;46.312;25.288;2023-04-01T08:33:31;94724.97;;;9.39;71.11
50394;BME280;36308;46.312;25.288;2023-04-01T08:36:45;94729.22;;;9.45;71.39
50394;BME280;36308;46.312;25.288;2023-04-01T08:42:36;94719.88;;;9.66;70.97
50394;BME280;36308;46.312;25.288;2023-04-01T08:45:21;94721.41;;;9.78;70.35
50394;BME280;36308;46.312;25.288;2023-04-01T08:56:18;94717.28;;;10.09;70.01
50394;BME280;36308;46.312;25.288;2023-04-01T09:27:05;94692.66;;;11.21;67.19
50394;BME280;36308;46.312;25.288;2023-04-01T09:32:31;94679.34;;;11.44;66.47
50394;BME280;36308;46.312;25.288;2023-04-01T10:06:20;94660.19;;;13.15;61.24
50394;BME280;36308;46.312;25.288;2023-04-01T10:11:22;94647.34;;;13.34;60.39
50394;BME280;36308;46.312;25.288;2023-04-01T10:17:08;94643.00;;;13.56;59.83
50394;BME280;36308;46.312;25.288;2023-04-01T10:28:33;94646.19;;;14.07;58.65
50394;BME280;36308;46.312;25.288;2023-04-01T11:41:19;94616.91;;;14.58;54.40
50394;BME280;36308;46.312;25.288;2023-04-01T11:44:19;94613.72;;;14.55;54.67
50394;BME280;36308;46.312;25.288;2023-04-01T11:47:07;94612.09;;;14.54;54.72
50394;BME280;36308;46.312;25.288;2023-04-01T11:53:02;94604.31;;;14.53;54.60
50394;BME280;36308;46.312;25.288;2023-04-01T12:01:03;94600.97;;;14.47;55.03
50394;BME280;36308;46.312;25.288;2023-04-01T12:06:34;94599.53;;;14.41;54.97
50394;BME280;36308;46.312;25.288;2023-04-01T12:17:28;94598.09;;;14.26;55.21
50394;BME280;36308;46.312;25.288;2023-04-01T12:28:20;94594.72;;;14.12;55.56
50394;BME280;36308;46.312;25.288;2023-04-01T12:34:00;94604.38;;;14.04;55.46
50394;BME280;36308;46.312;25.288;2023-04-01T12:36:31;94598.03;;;14.00;55.59
50394;BME280;36308;46.312;25.288;2023-04-01T13:05:49;94597.72;;;13.53;56.64
50394;BME280;36308;46.312;25.288;2023-04-01T13:11:09;94591.16;;;13.45;56.98
50394;BME280;36308;46.312;25.288;2023-04-01T13:16:28;94594.31;;;13.39;57.43
50394;BME280;36308;46.312;25.288;2023-04-01T13:29:31;94594.47;;;13.20;58.20
50394;BME280;36308;46.312;25.288;2023-04-01T13:37:23;94592.22;;;13.13;58.67
50394;BME280;36308;46.312;25.288;2023-04-01T13:40:02;94586.69;;;13.09;58.58
50394;BME280;36308;46.312;25.288;2023-04-01T13:42:37;94576.31;;;13.03;58.95
50394;BME280;36308;46.312;25.288;2023-04-01T13:51:15;94570.56;;;12.96;59.18
50394;BME280;36308;46.312;25.288;2023-04-01T13:59:24;94565.41;;;12.85;60.17
50394;BME280;36308;46.312;25.288;2023-04-01T14:21:32;94559.28;;;12.71;62.51
50394;BME280;36308;46.312;25.288;2023-04-01T14:32:28;94557.22;;;12.68;63.13
50394;BME280;36308;46.312;25.288;2023-04-01T14:35:11;94558.31;;;12.67;63.25
50394;BME280;36308;46.312;25.288;2023-04-01T14:49:16;94555.56;;;12.58;63.65
50394;BME280;36308;46.312;25.288;2023-04-01T14:51:45;94557.75;;;12.56;63.52
50394;BME280;36308;46.312;25.288;2023-04-01T14:56:44;94550.59;;;12.51;63.61
50394;BME280;36308;46.312;25.288;2023-04-01T15:03:07;94548.78;;;12.47;63.88
50394;BME280;36308;46.312;25.288;2023-04-01T15:10:37;94538.44;;;12.40;63.85
50394;BME280;36308;46.312;25.288;2023-04-01T15:16:28;94541.28;;;12.35;64.56
50394;BME280;36308;46.312;25.288;2023-04-01T15:24:47;94544.84;;;12.30;64.36
50394;BME280;36308;46.312;25.288;2023-04-01T15:32:43;94542.00;;;12.27;64.46
50394;BME280;36308;46.312;25.288;2023-04-01T15:47:31;94539.13;;;12.09;65.96
50394;BME280;36308;46.312;25.288;2023-04-01T15:50:03;94532.16;;;12.08;66.09
50394;BME280;36308;46.312;25.288;2023-04-01T15:55:36;94547.34;;;12.04;66.21
50394;BME280;36308;46.312;25.288;2023-04-01T16:04:27;94543.75;;;11.95;66.58
50394;BME280;36308;46.312;25.288;2023-04-01T16:07:39;94551.66;;;11.91;66.38
50394;BME280;36308;46.312;25.288;2023-04-01T16:21:09;94566.09;;;11.82;66.72
50394;BME280;36308;46.312;25.288;2023-04-01T16:23:58;94568.91;;;11.77;66.94
50394;BME280;36308;46.312;25.288;2023-04-01T16:26:29;94576.50;;;11.75;66.69
50394;BME280;36308;46.312;25.288;2023-04-01T16:31:51;94574.38;;;11.71;66.94
50394;BME280;36308;46.312;25.288;2023-04-01T16:34:32;94565.31;;;11.67;67.09
50394;BME280;36308;46.312;25.288;2023-04-01T16:37:07;94569.13;;;11.66;67.31
50394;BME280;36308;46.312;25.288;2023-04-01T16:45:32;94578.19;;;11.57;67.84
50394;BME280;36308;46.312;25.288;2023-04-01T16:48:09;94576.91;;;11.54;67.48
50394;BME280;36308;46.312;25.288;2023-04-01T16:50:51;94578.59;;;11.50;67.33
50394;BME280;36308;46.312;25.288;2023-04-01T16:53:53;94580.28;;;11.46;67.41
50394;BME280;36308;46.312;25.288;2023-04-01T16:56:21;94580.88;;;11.43;67.42
50394;BME280;36308;46.312;25.288;2023-04-01T16:59:03;94585.25;;;11.39;67.70
50394;BME280;36308;46.312;25.288;2023-04-01T17:04:32;94581.06;;;11.32;68.24
50394;BME280;36308;46.312;25.288;2023-04-01T17:34:39;94597.72;;;10.88;69.25
50394;BME280;36308;46.312;25.288;2023-04-01T17:43:32;94600.06;;;10.76;68.80
50394;BME280;36308;46.312;25.288;2023-04-01T17:45:58;94592.06;;;10.70;68.57
50394;BME280;36308;46.312;25.288;2023-04-01T17:48:38;94599.94;;;10.67;69.08
50394;BME280;36308;46.312;25.288;2023-04-01T18:10:21;94605.81;;;10.31;69.32
50394;BME280;36308;46.312;25.288;2023-04-01T18:26:44;94613.06;;;10.11;69.71
50394;BME280;36308;46.312;25.288;2023-04-01T18:32:15;94609.94;;;10.04;69.59
50394;BME280;36308;46.312;25.288;2023-04-01T18:37:34;94612.69;;;9.99;70.12
50394;BME280;36308;46.312;25.288;2023-04-01T18:40:16;94618.13;;;9.94;69.88
50394;BME280;36308;46.312;25.288;2023-04-01T18:43:10;94620.88;;;9.89;70.35
50394;BME280;36308;46.312;25.288;2023-04-01T18:45:41;94621.66;;;9.89;70.08
50394;BME280;36308;46.312;25.288;2023-04-01T18:49:04;94622.25;;;9.86;69.99
50394;BME280;36308;46.312;25.288;2023-04-01T18:54:02;94630.66;;;9.80;70.47
50394;BME280;36308;46.312;25.288;2023-04-01T18:56:34;94627.72;;;9.76;70.31
50394;BME280;36308;46.312;25.288;2023-04-01T18:59:32;94627.50;;;9.73;70.95
50394;BME280;36308;46.312;25.288;2023-04-01T19:02:31;94628.09;;;9.69;69.95
50394;BME280;36308;46.312;25.288;2023-04-01T19:07:54;94629.50;;;9.62;69.66
50394;BME280;36308;46.312;25.288;2023-04-01T19:15:44;94633.09;;;9.52;70.12
50394;BME280;36308;46.312;25.288;2023-04-01T19:24:55;94623.84;;;9.39;70.30
50394;BME280;36308;46.312;25.288;2023-04-01T19:27:35;94635.16;;;9.36;70.31
50394;BME280;36308;46.312;25.288;2023-04-01T19:35:44;94632.84;;;9.24;70.47
50394;BME280;36308;46.312;25.288;2023-04-01T19:38:37;94636.38;;;9.20;71.00
50394;BME280;36308;46.312;25.288;2023-04-01T19:41:11;94637.44;;;9.19;70.27
50394;BME280;36308;46.312;25.288;2023-04-01T19:46:23;94647.44;;;9.13;71.25
50394;BME280;36308;46.312;25.288;2023-04-01T19:49:09;94641.03;;;9.09;70.92
50394;BME280;36308;46.312;25.288;2023-04-01T19:52:03;94641.59;;;9.06;71.37
50394;BME280;36308;46.312;25.288;2023-04-01T19:55:13;94643.75;;;9.04;71.52
50394;BME280;36308;46.312;25.288;2023-04-01T19:57:46;94651.28;;;9.02;71.61
50394;BME280;36308;46.312;25.288;2023-04-01T20:00:24;94650.25;;;8.98;71.25
50394;BME280;36308;46.312;25.288;2023-04-01T20:08:33;94656.19;;;8.89;71.15
50394;BME280;36308;46.312;25.288;2023-04-01T20:19:39;94653.56;;;8.84;72.07
50394;BME280;36308;46.312;25.288;2023-04-01T20:27:58;94652.81;;;8.79;72.47
50394;BME280;36308;46.312;25.288;2023-04-01T20:50:59;94660.41;;;8.66;72.39
50394;BME280;36308;46.312;25.288;2023-04-01T20:54:03;94657.19;;;8.64;72.22
50394;BME280;36308;46.312;25.288;2023-04-01T20:56:36;94668.19;;;8.63;72.46
50394;BME280;36308;46.312;25.288;2023-04-01T21:25:27;94676.84;;;8.49;73.71
50394;BME280;36308;46.312;25.288;2023-04-01T21:38:47;94679.00;;;8.47;73.17
50394;BME280;36308;46.312;25.288;2023-04-01T22:14:56;94695.09;;;8.37;73.66
50394;BME280;36308;46.312;25.288;2023-04-01T22:17:35;94691.91;;;8.35;73.73
50394;BME280;36308;46.312;25.288;2023-04-01T22:20:21;94707.97;;;8.35;73.92
50394;BME280;36308;46.312;25.288;2023-04-01T22:32:23;94704.78;;;8.33;74.48
50394;BME280;36308;46.312;25.288;2023-04-01T22:37:39;94702.88;;;8.34;74.15
50394;BME280;36308;46.312;25.288;2023-04-01T22:40:34;94711.72;;;8.34;74.21
50394;BME280;36308;46.312;25.288;2023-04-01T22:49:01;94712.53;;;8.35;74.72
50394;BME280;36308;46.312;25.288;2023-04-01T22:51:39;94713.31;;;8.35;74.26
50394;BME280;36308;46.312;25.288;2023-04-01T22:54:14;94714.91;;;8.36;74.23
50394;BME280;36308;46.312;25.288;2023-04-01T22:59:31;94710.38;;;8.37;74.50
50394;BME280;36308;46.312;25.288;2023-04-01T23:02:06;94706.63;;;8.38;74.45
50394;BME280;36308;46.312;25.288;2023-04-01T23:04:37;94711.97;;;8.38;74.73
50394;BME280;36308;46.312;25.288;2023-04-01T23:07:24;94705.81;;;8.37;74.24
50394;BME280;36308;46.312;25.288;2023-04-01T23:09:57;94711.19;;;8.37;74.36
50394;BME280;36308;46.312;25.288;2023-04-01T23:12:25;94711.19;;;8.37;74.39
50394;BME280;36308;46.312;25.288;2023-04-01T23:14:58;94710.66;;;8.35;74.61
50394;BME280;36308;46.312;25.288;2023-04-01T23:17:35;94714.91;;;8.36;74.50
50394;BME280;36308;46.312;25.288;2023-04-01T23:25:55;94714.13;;;8.36;74.16
50394;BME280;36308;46.312;25.288;2023-04-01T23:30:57;94718.69;;;8.35;74.64
50394;BME280;36308;46.312;25.288;2023-04-01T23:33:32;94722.94;;;8.36;74.47
50394;BME280;36308;46.312;25.288;2023-04-01T23:36:12;94720.84;;;8.33;75.09
50394;BME280;36308;46.312;25.288;2023-04-01T23:38:42;94723.25;;;8.35;74.24
50394;BME280;36308;46.312;25.288;2023-04-01T23:41:30;94722.41;;;8.34;74.93
50394;BME280;36308;46.312;25.288;2023-04-01T23:44:09;94725.94;;;8.35;74.72
50394;BME280;36308;46.312;25.288;2023-04-01T23:46:37;94726.72;;;8.35;74.88
50394;BME280;36308;46.312;25.288;2023-04-01T23:49:06;94720.28;;;8.36;75.47
50394;BME280;36308;46.312;25.288;2023-04-01T23:51:49;94718.69;;;8.35;74.82
50394;BME280;36308;46.312;25.288;2023-04-01T23:54:29;94727.25;;;8.37;75.46
50394;BME280;36308;46.312;25.288;2023-04-01T23:56:56;94725.63;;;8.36;75.13
50394;BME280;36308;46.312;25.288;2023-04-01T23:59:34;94727.25;;;8.37;75.70
